createdAt,value
2018-09-26T00:00:40.316Z,7.50
2018-09-26T00:03:18.093Z,7.20
2018-09-26T00:05:46.758Z,7.20
2018-09-26T00:08:15.207Z,7.10
2018-09-26T00:10:43.626Z,7.10
2018-09-26T00:13:12.082Z,7.00
2018-09-26T00:15:40.499Z,7.00
2018-09-26T00:18:08.939Z,6.90
2018-09-26T00:20:37.475Z,6.80
2018-09-26T00:23:05.959Z,6.80
2018-09-26T00:25:34.412Z,6.70
2018-09-26T00:28:02.835Z,6.60
2018-09-26T00:30:31.286Z,6.60
2018-09-26T00:32:59.727Z,6.60
2018-09-26T00:35:28.178Z,6.70
2018-09-26T00:37:56.607Z,6.80
2018-09-26T00:40:25.080Z,6.90
2018-09-26T00:42:53.499Z,6.80
2018-09-26T00:45:21.952Z,6.80
2018-09-26T00:47:50.389Z,6.90
2018-09-26T00:50:18.851Z,7.10
2018-09-26T00:52:47.268Z,7.10
2018-09-26T00:55:15.720Z,7.10
2018-09-26T00:57:44.158Z,7.10
2018-09-26T01:00:12.659Z,7.20
2018-09-26T01:02:41.100Z,7.20
2018-09-26T01:05:09.555Z,7.10
2018-09-26T01:07:37.987Z,7.20
2018-09-26T01:10:06.515Z,7.00
2018-09-26T01:12:35.012Z,7.00
2018-09-26T01:15:03.520Z,7.10
2018-09-26T01:17:31.959Z,7.10
2018-09-26T01:20:00.410Z,7.00
2018-09-26T01:22:28.885Z,6.70
2018-09-26T01:24:57.391Z,6.40
2018-09-26T01:27:25.818Z,6.30
2018-09-26T01:29:54.267Z,6.20
2018-09-26T01:32:22.705Z,6.20
2018-09-26T01:34:51.159Z,6.10
2018-09-26T01:37:19.573Z,6.00
2018-09-26T01:39:48.032Z,6.00
2018-09-26T01:42:16.466Z,5.90
2018-09-26T01:44:44.923Z,5.90
2018-09-26T01:47:13.359Z,5.90
2018-09-26T01:49:41.835Z,5.70
2018-09-26T01:52:10.262Z,5.60
2018-09-26T01:54:38.684Z,5.60
2018-09-26T01:57:07.275Z,5.60
2018-09-26T01:59:35.726Z,5.60
2018-09-26T02:02:04.281Z,5.50
2018-09-26T02:04:32.709Z,5.40
2018-09-26T02:07:01.160Z,5.50
2018-09-26T02:09:29.613Z,5.50
2018-09-26T02:11:58.079Z,5.40
2018-09-26T02:14:26.514Z,5.50
2018-09-26T02:16:54.970Z,5.30
2018-09-26T02:19:23.415Z,5.40
2018-09-26T02:21:51.889Z,5.40
2018-09-26T02:24:20.379Z,5.40
2018-09-26T02:26:48.836Z,5.30
2018-09-26T02:29:17.267Z,5.30
2018-09-26T02:31:45.730Z,5.30
2018-09-26T02:34:14.167Z,5.40
2018-09-26T02:36:42.636Z,5.30
2018-09-26T02:39:11.075Z,5.30
2018-09-26T02:41:39.603Z,5.30
2018-09-26T02:44:08.046Z,5.20
2018-09-26T02:46:36.520Z,5.20
2018-09-26T02:49:05.646Z,5.20
2018-09-26T02:51:35.607Z,5.30
2018-09-26T02:54:04.245Z,5.30
2018-09-26T02:56:32.707Z,5.30
2018-09-26T02:59:01.203Z,5.40
2018-09-26T03:01:29.723Z,5.40
2018-09-26T03:03:58.167Z,5.30
2018-09-26T03:06:26.679Z,5.30
2018-09-26T03:08:55.115Z,5.40
2018-09-26T03:11:23.569Z,5.40
2018-09-26T03:13:52.052Z,5.40
2018-09-26T03:16:20.516Z,5.40
2018-09-26T03:18:48.984Z,5.40
2018-09-26T03:21:17.426Z,5.30
2018-09-26T03:23:45.886Z,5.30
2018-09-26T03:26:14.337Z,5.30
2018-09-26T03:28:42.805Z,5.40
2018-09-26T03:31:11.231Z,5.40
2018-09-26T03:33:39.698Z,5.40
2018-09-26T03:36:08.163Z,5.40
2018-09-26T03:38:36.615Z,5.30
2018-09-26T03:41:05.080Z,5.30
2018-09-26T03:43:33.536Z,5.30
2018-09-26T03:46:01.980Z,5.30
2018-09-26T03:48:30.443Z,5.50
2018-09-26T03:50:58.879Z,5.40
2018-09-26T03:53:27.338Z,5.40
2018-09-26T03:55:55.776Z,5.40
2018-09-26T03:58:24.242Z,5.40
2018-09-26T04:00:52.676Z,5.30
2018-09-26T04:03:21.137Z,5.40
2018-09-26T04:05:49.571Z,5.40
2018-09-26T04:08:18.032Z,5.40
2018-09-26T04:10:46.480Z,5.40
2018-09-26T04:13:15.111Z,5.50
2018-09-26T04:15:51.207Z,5.40
2018-09-26T04:18:20.259Z,5.40
2018-09-26T04:20:48.699Z,5.30
2018-09-26T04:23:17.167Z,5.30
2018-09-26T04:25:46.309Z,5.20
2018-09-26T04:28:14.795Z,5.10
2018-09-26T04:30:43.243Z,4.90
2018-09-26T04:33:11.968Z,4.80
2018-09-26T04:35:40.240Z,4.80
2018-09-26T04:38:09.186Z,4.80
2018-09-26T04:40:37.716Z,4.80
2018-09-26T04:43:06.569Z,4.80
2018-09-26T04:45:35.086Z,4.70
2018-09-26T04:48:03.532Z,4.70
2018-09-26T04:50:32.143Z,4.70
2018-09-26T04:53:00.617Z,4.60
2018-09-26T04:55:29.079Z,4.60
2018-09-26T04:57:57.558Z,4.50
2018-09-26T05:00:25.955Z,4.40
2018-09-26T05:02:54.395Z,4.30
2018-09-26T05:05:22.843Z,4.20
2018-09-26T05:07:51.285Z,4.10
2018-09-26T05:10:19.736Z,4.20
2018-09-26T05:12:48.178Z,4.30
2018-09-26T05:15:17.033Z,4.30
2018-09-26T05:17:45.455Z,4.30
2018-09-26T05:20:14.024Z,4.30
2018-09-26T05:22:42.458Z,4.30
2018-09-26T05:25:10.947Z,4.30
2018-09-26T05:27:39.375Z,4.40
2018-09-26T05:30:07.979Z,4.60
2018-09-26T05:32:36.399Z,4.60
2018-09-26T05:35:04.880Z,4.70
2018-09-26T05:37:33.332Z,4.80
2018-09-26T05:40:01.815Z,4.90
2018-09-26T05:42:30.288Z,5.00
2018-09-26T05:44:58.763Z,5.10
2018-09-26T05:47:27.262Z,5.20
2018-09-26T05:49:55.739Z,5.40
2018-09-26T05:52:24.158Z,5.50
2018-09-26T05:54:52.607Z,5.70
2018-09-26T05:57:21.017Z,5.60
2018-09-26T05:59:49.532Z,5.60
2018-09-26T06:02:18.017Z,5.60
2018-09-26T06:04:46.482Z,5.60
2018-09-26T06:07:14.915Z,5.70
2018-09-26T06:09:43.390Z,5.80
2018-09-26T06:12:11.836Z,5.80
2018-09-26T06:14:40.271Z,5.90
2018-09-26T06:17:08.724Z,6.00
2018-09-26T06:19:37.215Z,6.10
2018-09-26T06:22:05.692Z,6.20
2018-09-26T06:24:34.152Z,6.30
2018-09-26T06:27:02.627Z,6.30
2018-09-26T06:29:31.099Z,6.40
2018-09-26T06:31:59.548Z,6.40
2018-09-26T06:34:28.004Z,6.30
2018-09-26T06:36:56.469Z,6.20
2018-09-26T06:39:24.899Z,6.30
2018-09-26T06:41:53.363Z,6.20
2018-09-26T06:44:21.837Z,6.20
2018-09-26T06:46:50.348Z,6.10
2018-09-26T06:49:18.862Z,6.20
2018-09-26T06:51:47.311Z,6.30
2018-09-26T06:54:15.758Z,6.30
2018-09-26T06:56:44.246Z,6.40
2018-09-26T06:59:12.759Z,6.50
2018-09-26T07:01:41.248Z,6.60
2018-09-26T07:04:09.727Z,6.80
2018-09-26T07:06:38.191Z,6.90
2018-09-26T07:09:08.199Z,7.00
2018-09-26T07:11:36.659Z,6.90
2018-09-26T07:14:05.129Z,7.00
2018-09-26T07:16:33.588Z,7.30
2018-09-26T07:19:02.023Z,7.30
2018-09-26T07:21:30.497Z,7.50
2018-09-26T07:23:58.993Z,7.60
2018-09-26T07:26:27.460Z,7.70
2018-09-26T07:28:55.919Z,7.80
2018-09-26T07:31:24.439Z,8.00
2018-09-26T07:33:53.058Z,8.10
2018-09-26T07:36:21.539Z,8.20
2018-09-26T07:38:49.980Z,8.40
2018-09-26T07:41:18.619Z,8.60
2018-09-26T07:43:46.960Z,8.70
2018-09-26T07:46:15.426Z,9.00
2018-09-26T07:48:43.868Z,9.20
2018-09-26T07:51:12.343Z,9.20
2018-09-26T07:53:40.815Z,9.40
2018-09-26T07:56:09.284Z,9.60
2018-09-26T07:58:37.735Z,9.60
2018-09-26T08:01:06.248Z,9.70
2018-09-26T08:03:34.736Z,9.90
2018-09-26T08:06:03.258Z,9.80
2018-09-26T08:08:31.659Z,9.60
2018-09-26T08:11:00.098Z,9.80
2018-09-26T08:13:28.555Z,10.10
2018-09-26T08:15:56.987Z,10.40
2018-09-26T08:18:25.466Z,10.60
2018-09-26T08:20:53.906Z,10.70
2018-09-26T08:23:22.440Z,10.70
2018-09-26T08:25:50.874Z,10.80
2018-09-26T08:28:19.336Z,10.90
2018-09-26T08:30:47.791Z,11.20
2018-09-26T08:33:16.283Z,11.00
2018-09-26T08:35:44.714Z,11.20
2018-09-26T08:38:13.156Z,11.40
2018-09-26T08:40:41.652Z,11.30
2018-09-26T08:43:10.114Z,11.30
2018-09-26T08:45:38.541Z,11.50
2018-09-26T08:48:07.080Z,11.60
2018-09-26T08:50:35.523Z,11.40
2018-09-26T08:53:03.991Z,11.30
2018-09-26T08:55:32.431Z,11.60
2018-09-26T08:58:00.909Z,11.50
2018-09-26T09:00:36.205Z,11.80
2018-09-26T09:03:05.955Z,11.80
2018-09-26T09:05:34.422Z,11.60
2018-09-26T09:08:02.875Z,11.50
2018-09-26T09:10:31.334Z,11.80
2018-09-26T09:12:59.923Z,11.90
2018-09-26T09:15:28.837Z,12.00
2018-09-26T09:17:57.320Z,12.00
2018-09-26T09:20:25.867Z,12.30
2018-09-26T09:22:54.319Z,12.30
2018-09-26T09:25:22.767Z,12.40
2018-09-26T09:27:51.210Z,12.40
2018-09-26T09:30:19.663Z,12.50
2018-09-26T09:32:48.252Z,12.60
2018-09-26T09:35:16.709Z,12.70
2018-09-26T09:37:45.199Z,12.70
2018-09-26T09:40:13.727Z,13.10
2018-09-26T09:42:42.200Z,13.00
2018-09-26T09:45:10.884Z,13.20
2018-09-26T09:47:39.582Z,13.10
2018-09-26T09:50:08.355Z,13.00
2018-09-26T09:52:36.799Z,13.20
2018-09-26T09:55:05.303Z,13.40
2018-09-26T09:57:33.740Z,13.50
2018-09-26T10:00:02.288Z,13.60
2018-09-26T10:02:30.821Z,13.60
2018-09-26T10:04:59.295Z,13.80
2018-09-26T10:07:27.714Z,14.00
2018-09-26T10:09:56.160Z,14.20
2018-09-26T10:12:24.580Z,14.30
2018-09-26T10:14:53.082Z,14.40
2018-09-26T10:17:21.566Z,14.50
2018-09-26T10:19:50.007Z,14.40
2018-09-26T10:22:18.443Z,14.30
2018-09-26T10:24:46.890Z,14.50
2018-09-26T10:27:15.346Z,14.50
2018-09-26T10:29:43.819Z,14.50
2018-09-26T10:32:12.315Z,14.60
2018-09-26T10:34:40.767Z,14.60
2018-09-26T10:37:09.216Z,14.80
2018-09-26T10:39:37.749Z,14.80
2018-09-26T10:42:06.271Z,14.80
2018-09-26T10:44:34.739Z,15.00
2018-09-26T10:47:03.206Z,15.10
2018-09-26T10:49:31.658Z,15.30
2018-09-26T10:52:00.101Z,14.90
2018-09-26T10:54:28.577Z,14.90
2018-09-26T10:56:56.999Z,15.10
2018-09-26T10:59:25.475Z,15.40
2018-09-26T11:01:54.036Z,15.50
2018-09-26T11:04:22.515Z,15.50
2018-09-26T11:06:50.960Z,15.70
2018-09-26T11:09:19.403Z,15.80
2018-09-26T11:11:47.864Z,15.70
2018-09-26T11:14:16.323Z,15.90
2018-09-26T11:16:44.831Z,16.10
2018-09-26T11:19:13.276Z,16.20
2018-09-26T11:21:41.743Z,16.30
2018-09-26T11:24:10.193Z,16.30
2018-09-26T11:26:38.839Z,16.40
2018-09-26T11:29:07.213Z,16.50
2018-09-26T11:31:35.707Z,16.50
2018-09-26T11:34:04.352Z,16.70
2018-09-26T11:36:32.832Z,16.80
2018-09-26T11:39:01.325Z,16.80
2018-09-26T11:41:29.850Z,16.90
2018-09-26T11:43:58.309Z,17.00
2018-09-26T11:46:26.774Z,17.10
2018-09-26T11:48:55.228Z,17.10
2018-09-26T11:51:23.698Z,17.20
2018-09-26T11:53:52.160Z,17.10
2018-09-26T11:56:20.688Z,17.20
2018-09-26T11:58:49.173Z,17.20
2018-09-26T12:01:17.736Z,17.30
2018-09-26T12:03:46.178Z,17.40
2018-09-26T12:06:14.685Z,17.30
2018-09-26T12:08:43.071Z,17.30
2018-09-26T12:11:11.563Z,17.30
2018-09-26T12:13:40.032Z,17.50
2018-09-26T12:16:08.686Z,17.70
2018-09-26T12:18:37.148Z,17.70
2018-09-26T12:21:05.677Z,17.50
2018-09-26T12:23:34.107Z,17.60
2018-09-26T12:26:02.576Z,17.80
2018-09-26T12:28:31.050Z,17.90
2018-09-26T12:30:59.503Z,18.00
2018-09-26T12:33:28.019Z,18.00
2018-09-26T12:35:56.448Z,18.10
2018-09-26T12:38:24.911Z,18.00
2018-09-26T12:40:53.382Z,18.10
2018-09-26T12:43:21.832Z,18.10
2018-09-26T12:45:50.259Z,18.30
2018-09-26T12:48:18.786Z,18.30
2018-09-26T12:50:47.243Z,18.40
2018-09-26T12:53:15.704Z,18.60
2018-09-26T12:55:44.135Z,18.50
2018-09-26T12:58:12.606Z,18.40
2018-09-26T13:00:41.107Z,18.60
2018-09-26T13:03:09.570Z,18.70
2018-09-26T13:05:38.023Z,18.80
2018-09-26T13:08:06.665Z,18.80
2018-09-26T13:10:35.148Z,18.90
2018-09-26T13:13:03.613Z,18.70
2018-09-26T13:15:32.049Z,18.70
2018-09-26T13:18:00.518Z,18.70
2018-09-26T13:20:28.959Z,18.90
2018-09-26T13:22:57.430Z,19.10
2018-09-26T13:25:25.912Z,19.00
2018-09-26T13:27:54.408Z,19.00
2018-09-26T13:30:22.870Z,18.90
2018-09-26T13:32:51.349Z,18.80
2018-09-26T13:35:19.831Z,18.90
2018-09-26T13:37:48.327Z,19.00
2018-09-26T13:40:16.835Z,19.00
2018-09-26T13:42:45.374Z,19.10
2018-09-26T13:45:13.803Z,19.20
2018-09-26T13:47:42.248Z,19.20
2018-09-26T13:50:10.707Z,18.90
2018-09-26T13:52:39.183Z,19.10
2018-09-26T13:55:07.688Z,19.10
2018-09-26T13:57:36.192Z,19.20
2018-09-26T14:00:04.795Z,19.20
2018-09-26T14:02:33.280Z,19.10
2018-09-26T14:05:01.735Z,19.10
2018-09-26T14:07:30.231Z,19.10
2018-09-26T14:09:58.662Z,19.20
2018-09-26T14:12:27.131Z,19.20
2018-09-26T14:14:55.589Z,19.20
2018-09-26T14:17:24.147Z,19.10
2018-09-26T14:20:09.387Z,19.20
2018-09-26T14:22:37.942Z,19.30
2018-09-26T14:25:06.567Z,19.20
2018-09-26T14:27:35.157Z,19.30
2018-09-26T14:30:03.904Z,19.20
2018-09-26T14:32:32.475Z,19.10
2018-09-26T14:35:01.066Z,19.00
2018-09-26T14:37:29.680Z,19.10
2018-09-26T14:39:58.248Z,19.10
2018-09-26T14:42:26.836Z,19.10
2018-09-26T14:44:55.394Z,19.10
2018-09-26T14:47:23.956Z,19.00
2018-09-26T14:49:52.543Z,19.00
2018-09-26T14:52:21.123Z,18.90
2018-09-26T14:54:49.729Z,18.90
2018-09-26T14:57:18.323Z,18.90
2018-09-26T14:59:46.875Z,18.90
2018-09-26T15:02:15.471Z,18.80
2018-09-26T15:04:44.051Z,18.70
2018-09-26T15:07:12.624Z,18.70
2018-09-26T15:09:41.187Z,18.70
2018-09-26T15:12:09.790Z,18.70
2018-09-26T15:14:38.345Z,18.50
2018-09-26T15:17:07.041Z,18.60
2018-09-26T15:19:35.675Z,18.50
2018-09-26T15:22:04.265Z,18.50
2018-09-26T15:24:32.866Z,18.40
2018-09-26T15:27:01.421Z,18.50
2018-09-26T15:29:29.983Z,18.40
2018-09-26T15:31:58.547Z,18.30
2018-09-26T15:34:27.114Z,18.40
2018-09-26T15:36:55.711Z,18.40
2018-09-26T15:39:24.293Z,18.30
2018-09-26T15:41:52.911Z,18.30
2018-09-26T15:44:21.607Z,18.20
2018-09-26T15:46:50.150Z,18.30
2018-09-26T15:49:18.772Z,18.20
2018-09-26T15:51:47.335Z,18.10
2018-09-26T15:54:16.014Z,18.00
2018-09-26T15:56:44.596Z,18.00
2018-09-26T15:59:13.247Z,18.00
2018-09-26T16:01:41.811Z,17.90
2018-09-26T16:04:21.663Z,17.90
2018-09-26T16:06:50.103Z,17.80
2018-09-26T16:09:18.579Z,17.80
2018-09-26T16:11:47.055Z,17.80
2018-09-26T16:14:15.631Z,17.80
2018-09-26T16:16:44.081Z,17.70
2018-09-26T16:19:12.662Z,17.70
2018-09-26T16:21:41.115Z,17.60
2018-09-26T16:24:09.609Z,17.60
2018-09-26T16:26:38.119Z,17.60
2018-09-26T16:29:06.662Z,17.50
2018-09-26T16:31:35.227Z,17.40
2018-09-26T16:34:03.755Z,17.40
2018-09-26T16:36:32.294Z,17.30
2018-09-26T16:39:00.771Z,17.30
2018-09-26T16:41:29.514Z,17.30
2018-09-26T16:43:57.963Z,17.20
2018-09-26T16:46:26.463Z,17.10
2018-09-26T16:48:54.915Z,17.10
2018-09-26T16:51:23.407Z,17.10
2018-09-26T16:53:51.855Z,17.00
2018-09-26T16:56:20.332Z,16.90
2018-09-26T16:58:48.796Z,16.80
2018-09-26T17:01:17.335Z,16.80
2018-09-26T17:03:45.784Z,16.70
2018-09-26T17:06:14.255Z,16.70
2018-09-26T17:08:42.743Z,16.60
2018-09-26T17:11:11.223Z,16.50
2018-09-26T17:13:39.701Z,16.50
2018-09-26T17:16:08.289Z,16.40
2018-09-26T17:18:36.968Z,16.30
2018-09-26T17:21:05.459Z,16.30
2018-09-26T17:23:33.927Z,16.20
2018-09-26T17:26:02.442Z,16.20
2018-09-26T17:28:30.934Z,16.20
2018-09-26T17:30:59.378Z,16.00
2018-09-26T17:33:27.839Z,15.90
2018-09-26T17:35:56.333Z,15.80
2018-09-26T17:38:24.776Z,15.80
2018-09-26T17:40:53.328Z,15.70
2018-09-26T17:43:21.766Z,15.60
2018-09-26T17:45:50.252Z,15.50
2018-09-26T17:48:18.764Z,15.40
2018-09-26T17:50:47.196Z,15.40
2018-09-26T17:53:15.651Z,15.30
2018-09-26T17:55:44.091Z,15.20
2018-09-26T17:58:12.587Z,15.10
2018-09-26T18:00:41.123Z,15.10
2018-09-26T18:03:09.612Z,15.10
2018-09-26T18:05:38.064Z,15.00
2018-09-26T18:08:06.569Z,15.00
2018-09-26T18:10:35.055Z,14.90
2018-09-26T18:13:03.543Z,14.90
2018-09-26T18:15:31.992Z,14.70
2018-09-26T18:18:00.486Z,14.60
2018-09-26T18:20:28.984Z,14.60
2018-09-26T18:22:57.529Z,14.60
2018-09-26T18:25:26.031Z,14.60
2018-09-26T18:27:54.689Z,14.50
2018-09-26T18:30:23.095Z,14.40
2018-09-26T18:32:51.631Z,14.20
2018-09-26T18:35:20.147Z,14.00
2018-09-26T18:37:48.710Z,13.80
2018-09-26T18:40:17.240Z,13.80
2018-09-26T18:42:45.760Z,13.70
2018-09-26T18:45:14.232Z,13.70
2018-09-26T18:47:42.787Z,13.70
2018-09-26T18:50:11.296Z,13.70
2018-09-26T18:52:39.811Z,13.60
2018-09-26T18:55:08.346Z,13.50
2018-09-26T18:57:36.863Z,13.40
2018-09-26T19:00:05.435Z,13.30
2018-09-26T19:02:33.920Z,13.20
2018-09-26T19:05:02.520Z,13.20
2018-09-26T19:07:30.972Z,13.10
2018-09-26T19:09:59.426Z,13.10
2018-09-26T19:12:27.997Z,13.10
2018-09-26T19:14:56.526Z,13.20
2018-09-26T19:17:24.955Z,13.30
2018-09-26T19:19:53.431Z,13.20
2018-09-26T19:22:21.944Z,13.20
2018-09-26T19:24:50.450Z,13.10
2018-09-26T19:27:18.983Z,13.00
2018-09-26T19:29:47.415Z,12.90
2018-09-26T19:32:15.892Z,12.90
2018-09-26T19:34:44.370Z,12.80
2018-09-26T19:37:12.858Z,12.80
2018-09-26T19:39:41.364Z,12.80
2018-09-26T19:42:09.916Z,12.80
2018-09-26T19:44:38.387Z,12.70
2018-09-26T19:47:06.875Z,12.60
2018-09-26T19:49:35.364Z,12.60
2018-09-26T19:52:03.871Z,12.60
2018-09-26T19:54:32.431Z,12.50
2018-09-26T19:57:00.928Z,12.50
2018-09-26T19:59:29.391Z,12.50
2018-09-26T20:01:57.889Z,12.40
2018-09-26T20:04:26.332Z,12.40
2018-09-26T20:06:54.784Z,12.40
2018-09-26T20:09:23.262Z,12.30
2018-09-26T20:11:51.729Z,12.30
2018-09-26T20:14:20.203Z,12.30
2018-09-26T20:16:48.636Z,12.20
2018-09-26T20:19:17.105Z,12.20
2018-09-26T20:21:45.554Z,12.10
2018-09-26T20:24:14.040Z,12.10
2018-09-26T20:26:42.584Z,12.10
2018-09-26T20:29:11.030Z,12.10
2018-09-26T20:31:39.450Z,12.00
2018-09-26T20:34:08.148Z,12.00
2018-09-26T20:36:36.618Z,12.00
2018-09-26T20:39:07.902Z,12.00
2018-09-26T20:41:36.373Z,11.90
2018-09-26T20:44:04.828Z,11.90
2018-09-26T20:46:33.297Z,11.90
2018-09-26T20:49:01.756Z,11.80
2018-09-26T20:51:30.376Z,11.80
2018-09-26T20:53:58.851Z,11.80
2018-09-26T20:56:27.335Z,11.70
2018-09-26T20:58:55.794Z,11.60
2018-09-26T21:01:24.254Z,11.60
2018-09-26T21:03:52.696Z,11.60
2018-09-26T21:06:21.191Z,11.50
2018-09-26T21:08:49.643Z,11.50
2018-09-26T21:11:18.155Z,11.50
2018-09-26T21:13:46.598Z,11.50
2018-09-26T21:16:15.122Z,11.50
2018-09-26T21:18:43.604Z,11.40
2018-09-26T21:21:12.074Z,11.40
2018-09-26T21:23:40.813Z,11.40
2018-09-26T21:26:09.284Z,11.30
2018-09-26T21:28:37.716Z,11.10
2018-09-26T21:31:06.193Z,11.10
2018-09-26T21:33:34.636Z,11.00
2018-09-26T21:36:03.113Z,10.90
2018-09-26T21:38:31.549Z,10.80
2018-09-26T21:41:00.045Z,10.80
2018-09-26T21:43:28.504Z,10.70
2018-09-26T21:45:56.937Z,10.70
2018-09-26T21:48:25.386Z,10.60
2018-09-26T21:50:53.823Z,10.60
2018-09-26T21:53:22.327Z,10.50
2018-09-26T21:55:50.755Z,10.50
2018-09-26T21:58:19.208Z,10.50
2018-09-26T22:00:53.048Z,10.50
2018-09-26T22:03:21.556Z,10.60
2018-09-26T22:05:50.047Z,10.50
2018-09-26T22:08:18.565Z,10.50
2018-09-26T22:10:47.182Z,10.40
2018-09-26T22:13:15.644Z,10.40
2018-09-26T22:15:44.128Z,10.40
2018-09-26T22:18:12.621Z,10.30
2018-09-26T22:20:41.065Z,10.30
2018-09-26T22:23:09.571Z,10.30
2018-09-26T22:25:38.000Z,10.30
2018-09-26T22:28:06.715Z,10.40
2018-09-26T22:30:35.180Z,10.40
2018-09-26T22:33:03.784Z,10.30
2018-09-26T22:35:32.390Z,10.30
2018-09-26T22:38:01.009Z,10.30
2018-09-26T22:40:29.591Z,10.30
2018-09-26T22:42:58.072Z,10.20
2018-09-26T22:45:26.547Z,10.20
2018-09-26T22:47:55.100Z,10.20
2018-09-26T22:50:23.548Z,10.20
2018-09-26T22:52:53.129Z,10.20
2018-09-26T22:55:24.680Z,10.10
2018-09-26T22:57:53.174Z,9.90
2018-09-26T23:00:21.612Z,9.80
2018-09-26T23:02:50.061Z,9.80
2018-09-26T23:05:18.520Z,9.70
2018-09-26T23:07:47.006Z,9.60
2018-09-26T23:10:15.477Z,9.60
2018-09-26T23:12:43.948Z,9.50
2018-09-26T23:15:12.384Z,9.60
2018-09-26T23:17:40.872Z,9.50
2018-09-26T23:20:09.404Z,9.50
2018-09-26T23:22:37.845Z,9.40
2018-09-26T23:25:06.331Z,9.40
2018-09-26T23:27:34.820Z,9.40
2018-09-26T23:30:03.311Z,9.40
2018-09-26T23:32:31.786Z,9.40
2018-09-26T23:35:00.255Z,9.50
2018-09-26T23:37:28.751Z,9.60
2018-09-26T23:39:57.209Z,9.60
2018-09-26T23:42:25.708Z,9.60
2018-09-26T23:44:54.166Z,9.60
2018-09-26T23:47:23.043Z,9.60
2018-09-26T23:49:51.521Z,9.70
2018-09-26T23:52:19.968Z,9.70
2018-09-26T23:54:49.335Z,9.70
2018-09-26T23:57:17.768Z,9.60
2018-09-26T23:59:46.262Z,9.50
